createdAt,value
2019-02-04T00:00:02.468Z,6.53
2019-02-04T00:06:02.911Z,6.17
2019-02-04T00:08:47.157Z,6.30
2019-02-04T00:11:43.628Z,7.23
2019-02-04T00:14:33.617Z,5.57
2019-02-04T00:17:54.776Z,6.13
2019-02-04T00:20:52.569Z,5.20
2019-02-04T00:23:23.201Z,5.67
2019-02-04T00:26:31.688Z,5.57
2019-02-04T00:29:40.553Z,6.20
2019-02-04T00:32:49.375Z,5.43
2019-02-04T00:35:19.849Z,5.23
2019-02-04T00:38:29.423Z,7.70
2019-02-04T00:41:38.198Z,6.10
2019-02-04T00:44:46.725Z,5.63
2019-02-04T00:47:55.347Z,6.90
2019-02-04T00:51:06.607Z,5.27
2019-02-04T00:54:15.411Z,6.63
2019-02-04T00:59:38.777Z,6.00
2019-02-04T01:02:28.695Z,7.47
2019-02-04T01:04:58.147Z,7.60
2019-02-04T01:07:27.048Z,5.67
2019-02-04T01:15:38.314Z,5.90
2019-02-04T01:18:07.130Z,5.73
2019-02-04T01:20:37.606Z,4.93
2019-02-04T01:23:06.334Z,5.07
2019-02-04T01:25:35.159Z,4.97
2019-02-04T01:30:58.333Z,5.60
2019-02-04T01:33:27.215Z,5.23
2019-02-04T01:36:15.219Z,5.43
2019-02-04T01:44:07.379Z,5.93
2019-02-04T01:46:36.105Z,5.93
2019-02-04T01:49:44.670Z,5.60
2019-02-04T01:52:13.453Z,5.07
2019-02-04T01:54:42.256Z,5.60
2019-02-04T01:57:12.744Z,5.70
2019-02-04T02:00:21.233Z,5.57
2019-02-04T02:02:50.007Z,5.83
2019-02-04T02:05:18.724Z,7.07
2019-02-04T02:07:47.539Z,6.07
2019-02-04T02:10:35.638Z,6.07
2019-02-04T02:18:55.344Z,5.70
2019-02-04T02:21:43.294Z,5.90
2019-02-04T02:24:31.727Z,5.23
2019-02-04T02:30:00.535Z,6.10
2019-02-04T02:32:48.785Z,6.83
2019-02-04T02:38:11.932Z,5.27
2019-02-04T02:40:42.250Z,6.20
2019-02-04T02:43:11.903Z,6.17
2019-02-04T02:45:42.060Z,6.13
2019-02-04T02:48:30.113Z,6.20
2019-02-04T02:51:18.283Z,6.63
2019-02-04T02:56:35.502Z,5.93
2019-02-04T02:59:45.714Z,6.60
2019-02-04T03:02:14.432Z,7.13
2019-02-04T03:04:43.095Z,6.70
2019-02-04T03:10:27.075Z,6.57
2019-02-04T03:13:16.495Z,6.40
2019-02-04T03:15:45.213Z,7.03
2019-02-04T03:21:01.616Z,6.87
2019-02-04T03:23:30.421Z,6.17
2019-02-04T03:25:59.194Z,7.23
2019-02-04T03:28:27.939Z,7.27
2019-02-04T03:30:56.660Z,7.93
2019-02-04T03:33:27.181Z,5.70
2019-02-04T03:36:14.996Z,7.20
2019-02-04T03:43:52.732Z,6.77
2019-02-04T03:46:21.383Z,7.77
2019-02-04T03:48:50.108Z,7.63
2019-02-04T03:51:37.992Z,6.57
2019-02-04T03:59:47.233Z,8.87
2019-02-04T04:02:35.376Z,7.67
2019-02-04T04:10:46.151Z,7.10
2019-02-04T04:13:33.969Z,7.63
2019-02-04T04:16:03.062Z,8.37
2019-02-04T04:18:31.798Z,7.90
2019-02-04T04:21:19.606Z,8.47
2019-02-04T04:29:03.183Z,8.03
2019-02-04T04:31:31.919Z,7.20
2019-02-04T04:34:19.885Z,8.20
2019-02-04T04:36:48.612Z,7.57
2019-02-04T04:39:36.543Z,7.50
2019-02-04T04:42:07.061Z,7.57
2019-02-04T04:44:35.847Z,7.17
2019-02-04T04:49:58.490Z,7.37
2019-02-04T04:52:28.887Z,7.07
2019-02-04T04:54:57.704Z,8.03
2019-02-04T04:57:26.494Z,8.07
2019-02-04T04:59:55.338Z,6.80
2019-02-04T05:02:24.086Z,7.43
2019-02-04T05:04:52.889Z,8.57
2019-02-04T05:07:21.814Z,7.93
2019-02-04T05:09:50.598Z,8.17
2019-02-04T05:12:19.319Z,8.67
2019-02-04T05:14:47.997Z,8.63
2019-02-04T05:17:16.808Z,7.30
2019-02-04T05:20:04.772Z,8.00
2019-02-04T05:22:33.519Z,6.77
2019-02-04T05:25:02.297Z,8.90
2019-02-04T05:27:31.036Z,8.43
2019-02-04T05:29:59.862Z,7.87
2019-02-04T05:32:50.013Z,9.47
2019-02-04T05:37:53.179Z,10.43
2019-02-04T05:40:21.999Z,8.30
2019-02-04T05:42:50.759Z,8.50
2019-02-04T05:45:59.349Z,10.80
2019-02-04T05:51:20.877Z,9.03
2019-02-04T05:54:29.911Z,8.97
2019-02-04T05:57:38.834Z,8.07
2019-02-04T06:00:47.711Z,8.10
2019-02-04T06:03:58.167Z,7.90
2019-02-04T06:06:29.270Z,9.47
2019-02-04T06:09:38.197Z,8.73
2019-02-04T06:12:46.936Z,8.80
2019-02-04T06:15:55.784Z,7.70
2019-02-04T06:19:04.549Z,10.30
2019-02-04T06:21:33.415Z,8.53
2019-02-04T06:24:43.718Z,8.83
2019-02-04T06:27:52.442Z,9.07
2019-02-04T06:31:01.223Z,8.40
2019-02-04T06:34:11.379Z,9.20
2019-02-04T06:37:20.107Z,10.13
2019-02-04T06:40:31.201Z,11.70
2019-02-04T06:43:02.286Z,15.80
2019-02-04T06:45:31.126Z,15.40
2019-02-04T06:48:39.657Z,19.33
2019-02-04T06:57:22.364Z,20.47
2019-02-04T07:00:31.248Z,21.00
2019-02-04T07:03:41.419Z,20.20
2019-02-04T07:06:11.148Z,19.03
2019-02-04T07:09:20.831Z,20.40
2019-02-04T07:14:45.793Z,15.03
2019-02-04T07:17:54.557Z,13.93
2019-02-04T07:21:04.768Z,14.40
2019-02-04T07:24:13.298Z,14.57
2019-02-04T07:27:22.577Z,9.47
2019-02-04T07:30:32.359Z,11.43
2019-02-04T07:39:05.283Z,10.17
2019-02-04T07:42:15.757Z,9.80
2019-02-04T07:48:08.976Z,9.63
2019-02-04T07:53:51.511Z,9.03
2019-02-04T07:57:00.053Z,9.07
2019-02-04T08:00:08.686Z,9.77
2019-02-04T08:03:18.986Z,9.37
2019-02-04T08:06:27.512Z,10.40
2019-02-04T08:09:36.162Z,8.70
2019-02-04T08:12:45.562Z,9.83
2019-02-04T08:15:54.919Z,10.63
2019-02-04T08:19:05.879Z,8.37
2019-02-04T08:21:36.967Z,9.93
2019-02-04T08:24:45.640Z,8.40
2019-02-04T08:27:54.357Z,7.37
2019-02-04T08:34:01.478Z,7.33
2019-02-04T08:37:11.128Z,7.97
2019-02-04T08:40:22.721Z,9.40
2019-02-04T08:46:09.091Z,9.53
2019-02-04T08:49:19.516Z,8.13
2019-02-04T08:52:30.214Z,8.60
2019-02-04T08:55:39.146Z,9.23
2019-02-04T08:58:47.863Z,7.73
2019-02-04T09:01:58.414Z,8.87
2019-02-04T09:08:15.295Z,7.07
2019-02-04T09:11:23.903Z,7.93
2019-02-04T09:16:49.415Z,8.57
2019-02-04T09:20:09.406Z,8.37
2019-02-04T09:23:08.633Z,9.47
2019-02-04T09:26:17.647Z,7.53
2019-02-04T09:29:26.088Z,9.20
2019-02-04T09:32:34.579Z,7.90
2019-02-04T09:35:43.081Z,6.50
2019-02-04T09:38:53.295Z,6.53
2019-02-04T09:42:01.999Z,7.50
2019-02-04T09:48:21.822Z,6.20
2019-02-04T09:51:33.271Z,6.47
2019-02-04T09:56:49.573Z,5.57
2019-02-04T10:02:25.219Z,5.97
2019-02-04T10:04:53.877Z,6.17
2019-02-04T10:07:41.848Z,3.87
2019-02-04T10:10:50.338Z,4.00
2019-02-04T10:13:38.328Z,3.90
2019-02-04T10:16:07.017Z,4.03
2019-02-04T10:18:37.844Z,3.93
2019-02-04T10:21:06.173Z,3.57
2019-02-04T10:26:09.312Z,3.27
2019-02-04T10:28:39.814Z,3.73
2019-02-04T10:31:08.599Z,3.27
2019-02-04T10:36:11.460Z,3.60
2019-02-04T10:38:40.174Z,3.63
2019-02-04T10:41:08.964Z,3.50
2019-02-04T10:43:37.632Z,3.10
2019-02-04T10:46:06.427Z,3.20
2019-02-04T10:48:35.185Z,3.03
2019-02-04T10:51:23.117Z,2.70
2019-02-04T10:53:53.502Z,2.50
2019-02-04T10:56:22.292Z,2.37
2019-02-04T10:58:50.987Z,2.60
2019-02-04T11:01:19.720Z,2.30
2019-02-04T11:03:48.553Z,2.47
2019-02-04T11:06:17.522Z,2.27
2019-02-04T11:08:46.284Z,2.00
2019-02-04T11:11:15.064Z,2.20
2019-02-04T11:13:43.864Z,3.03
2019-02-04T11:16:12.639Z,2.33
2019-02-04T11:18:41.449Z,2.63
2019-02-04T11:21:10.190Z,2.53
2019-02-04T11:26:12.732Z,2.37
2019-02-04T11:29:00.735Z,2.47
2019-02-04T11:31:29.596Z,2.77
2019-02-04T11:33:58.500Z,1.77
2019-02-04T11:36:27.287Z,2.63
2019-02-04T11:38:56.035Z,2.30
2019-02-04T11:41:24.818Z,2.60
2019-02-04T11:46:41.297Z,2.60
2019-02-04T11:49:09.966Z,2.97
2019-02-04T11:51:38.689Z,2.60
2019-02-04T11:54:07.423Z,3.30
2019-02-04T11:56:36.160Z,2.93
2019-02-04T11:59:04.926Z,2.60
2019-02-04T12:01:33.877Z,2.93
2019-02-04T12:04:02.661Z,3.03
2019-02-04T12:06:50.693Z,2.70
2019-02-04T12:09:19.426Z,3.10
2019-02-04T12:11:48.210Z,3.63
2019-02-04T12:14:16.867Z,3.93
2019-02-04T12:16:45.648Z,2.80
2019-02-04T12:19:14.320Z,2.57
2019-02-04T12:21:43.201Z,2.67
2019-02-04T12:26:59.608Z,2.67
2019-02-04T12:29:28.350Z,2.83
2019-02-04T12:34:44.765Z,2.50
2019-02-04T12:37:32.713Z,3.50
2019-02-04T12:40:01.475Z,2.60
2019-02-04T12:42:30.301Z,2.50
2019-02-04T12:45:18.106Z,2.70
2019-02-04T12:47:46.885Z,2.13
2019-02-04T12:50:36.273Z,2.30
2019-02-04T12:53:44.804Z,2.60
2019-02-04T12:56:13.455Z,2.70
2019-02-04T12:58:42.157Z,3.00
2019-02-04T13:04:20.771Z,2.77
2019-02-04T13:06:49.511Z,2.73
2019-02-04T13:09:18.302Z,3.10
2019-02-04T13:11:46.974Z,2.50
2019-02-04T13:14:15.750Z,3.00
2019-02-04T13:16:44.497Z,3.17
2019-02-04T13:19:13.267Z,2.60
2019-02-04T13:21:45.553Z,3.23
2019-02-04T13:26:46.150Z,3.40
2019-02-04T13:29:14.933Z,3.30
2019-02-04T13:31:43.591Z,3.00
2019-02-04T13:34:12.377Z,3.33
2019-02-04T13:36:41.106Z,3.20
2019-02-04T13:39:49.642Z,2.90
2019-02-04T13:42:18.371Z,3.73
2019-02-04T13:44:48.808Z,3.43
2019-02-04T13:47:17.535Z,2.70
2019-02-04T13:49:46.304Z,3.00
2019-02-04T13:52:15.409Z,3.10
2019-02-04T13:54:45.504Z,3.33
2019-02-04T13:57:14.167Z,3.13
2019-02-04T13:59:44.652Z,2.67
2019-02-04T14:02:13.584Z,3.23
2019-02-04T14:04:42.322Z,3.40
2019-02-04T14:07:11.075Z,2.80
2019-02-04T14:09:39.962Z,3.37
2019-02-04T14:12:08.725Z,2.93
2019-02-04T14:14:37.497Z,2.80
2019-02-04T14:17:06.276Z,2.93
2019-02-04T14:19:34.944Z,3.00
2019-02-04T14:22:09.506Z,3.30
2019-02-04T14:24:34.311Z,3.30
2019-02-04T14:27:03.020Z,3.43
2019-02-04T14:29:33.770Z,2.80
2019-02-04T14:32:02.206Z,3.00
2019-02-04T14:34:30.947Z,3.73
2019-02-04T14:36:59.672Z,2.70
2019-02-04T14:39:28.441Z,3.10
2019-02-04T14:41:58.831Z,3.07
2019-02-04T14:44:27.818Z,3.23
2019-02-04T14:47:36.319Z,3.27
2019-02-04T14:50:43.499Z,3.47
2019-02-04T14:53:50.738Z,3.57
2019-02-04T14:56:59.174Z,4.70
2019-02-04T15:00:07.655Z,3.23
2019-02-04T15:03:19.684Z,3.53
2019-02-04T15:06:25.072Z,2.90
2019-02-04T15:09:32.271Z,2.87
2019-02-04T15:12:39.515Z,2.30
2019-02-04T15:15:46.748Z,3.00
2019-02-04T15:18:55.255Z,3.37
2019-02-04T15:22:03.706Z,2.43
2019-02-04T15:25:10.953Z,2.40
2019-02-04T15:28:18.133Z,2.67
2019-02-04T15:31:26.646Z,2.47
2019-02-04T15:34:33.830Z,3.20
2019-02-04T15:37:42.313Z,2.60
2019-02-04T15:40:52.462Z,2.87
2019-02-04T15:43:59.700Z,2.90
2019-02-04T15:47:06.893Z,2.97
2019-02-04T15:50:14.160Z,3.23
2019-02-04T15:55:56.865Z,4.10
2019-02-04T15:58:25.920Z,4.17
2019-02-04T16:00:54.617Z,3.43
2019-02-04T16:03:23.396Z,3.40
2019-02-04T16:05:52.178Z,3.93
2019-02-04T16:08:40.038Z,3.70
2019-02-04T16:11:10.399Z,4.20
2019-02-04T16:13:39.060Z,4.40
2019-02-04T16:16:07.760Z,4.97
2019-02-04T16:18:36.458Z,3.77
2019-02-04T16:21:44.950Z,4.43
2019-02-04T16:26:47.763Z,4.00
2019-02-04T16:34:58.443Z,5.20
2019-02-04T16:37:27.306Z,6.23
2019-02-04T16:40:15.233Z,6.57
2019-02-04T16:45:57.973Z,6.57
2019-02-04T16:48:26.685Z,5.20
2019-02-04T16:51:10.476Z,5.10
2019-02-04T16:53:36.150Z,4.77
2019-02-04T16:56:04.823Z,4.97
2019-02-04T16:58:33.604Z,5.10
2019-02-04T17:01:02.314Z,5.20
2019-02-04T17:03:31.085Z,5.27
2019-02-04T17:05:59.733Z,5.27
2019-02-04T17:08:28.518Z,5.20
2019-02-04T17:10:57.347Z,5.77
2019-02-04T17:13:26.132Z,5.50
2019-02-04T17:15:54.856Z,5.10
2019-02-04T17:18:42.813Z,5.77
2019-02-04T17:21:13.343Z,4.73
2019-02-04T17:26:50.176Z,4.57
2019-02-04T17:29:18.960Z,5.77
2019-02-04T17:31:47.696Z,5.00
2019-02-04T17:34:16.474Z,4.47
2019-02-04T17:36:45.134Z,4.90
2019-02-04T17:39:13.935Z,6.07
2019-02-04T17:41:42.578Z,5.53
2019-02-04T17:44:11.325Z,5.40
2019-02-04T17:46:40.031Z,5.97
2019-02-04T17:49:08.741Z,5.97
2019-02-04T17:51:37.514Z,5.93
2019-02-04T17:54:06.209Z,6.17
2019-02-04T17:56:35.002Z,6.13
2019-02-04T17:59:45.347Z,7.07
2019-02-04T18:02:14.072Z,6.63
2019-02-04T18:04:42.746Z,6.70
2019-02-04T18:07:11.464Z,7.10
2019-02-04T18:09:40.252Z,7.40
2019-02-04T18:12:08.958Z,6.20
2019-02-04T18:14:37.626Z,7.30
2019-02-04T18:17:06.344Z,6.90
2019-02-04T18:19:35.087Z,6.30
2019-02-04T18:24:37.490Z,6.90
2019-02-04T18:27:07.920Z,7.10
2019-02-04T18:32:24.274Z,9.00
2019-02-04T18:35:12.068Z,7.73
2019-02-04T18:37:40.842Z,8.43
2019-02-04T18:40:49.415Z,7.10
2019-02-04T18:43:18.194Z,7.67
2019-02-04T18:45:46.873Z,8.90
2019-02-04T18:48:15.591Z,7.70
2019-02-04T18:50:45.991Z,8.83
2019-02-04T18:53:14.699Z,9.47
2019-02-04T18:55:43.424Z,7.93
2019-02-04T18:58:33.213Z,8.37
2019-02-04T19:01:20.972Z,8.23
2019-02-04T19:03:49.716Z,8.87
2019-02-04T19:06:18.393Z,8.40
2019-02-04T19:08:48.878Z,9.07
2019-02-04T19:11:17.557Z,8.03
2019-02-04T19:14:05.527Z,9.13
2019-02-04T19:19:08.109Z,8.90
2019-02-04T19:21:38.337Z,9.47
2019-02-04T19:24:09.751Z,9.80
2019-02-04T19:26:37.687Z,9.27
2019-02-04T19:29:25.648Z,9.33
2019-02-04T19:32:34.142Z,10.67
2019-02-04T19:35:22.065Z,10.47
2019-02-04T19:38:10.016Z,9.17
2019-02-04T19:40:57.862Z,10.17
2019-02-04T19:43:45.660Z,8.97
2019-02-04T19:46:54.161Z,11.83
2019-02-04T19:49:22.873Z,10.17
2019-02-04T19:54:39.298Z,9.83
2019-02-04T19:57:27.105Z,9.93
2019-02-04T19:59:55.815Z,9.63
2019-02-04T20:02:24.524Z,9.43
2019-02-04T20:05:12.323Z,11.70
2019-02-04T20:07:41.104Z,9.80
2019-02-04T20:13:19.683Z,11.00
2019-02-04T20:16:07.649Z,11.63
2019-02-04T20:18:36.372Z,13.83
2019-02-04T20:21:45.593Z,11.50
2019-02-04T20:24:15.259Z,11.23
2019-02-04T20:27:03.244Z,13.40
2019-02-04T20:29:51.502Z,14.17
2019-02-04T20:32:21.965Z,10.60
2019-02-04T20:35:30.520Z,12.43
2019-02-04T20:38:39.028Z,11.70
2019-02-04T20:41:47.535Z,10.27
2019-02-04T20:44:19.225Z,11.17
2019-02-04T20:47:06.059Z,12.27
2019-02-04T20:49:54.565Z,12.30
2019-02-04T20:52:42.897Z,10.90
2019-02-04T20:55:34.779Z,12.57
2019-02-04T20:58:24.960Z,12.93
2019-02-04T21:01:34.626Z,13.30
2019-02-04T21:04:45.580Z,13.37
2019-02-04T21:07:55.137Z,12.50
2019-02-04T21:11:05.592Z,12.13
2019-02-04T21:16:29.439Z,11.80
2019-02-04T21:19:38.008Z,12.87
2019-02-04T21:25:48.568Z,12.40
2019-02-04T21:35:11.608Z,20.90
2019-02-04T21:38:21.354Z,17.57
2019-02-04T21:41:11.014Z,17.20
2019-02-04T21:44:20.188Z,16.60
2019-02-04T21:47:09.389Z,15.93
2019-02-04T21:49:39.917Z,17.43
2019-02-04T21:52:48.370Z,16.90
2019-02-04T21:55:57.607Z,23.38
2019-02-04T21:58:47.553Z,19.47
2019-02-04T22:04:25.456Z,17.07
2019-02-04T22:06:55.987Z,15.83
2019-02-04T22:09:45.637Z,17.17
2019-02-04T22:12:33.634Z,15.13
2019-02-04T22:15:02.321Z,15.27
2019-02-04T22:17:32.828Z,16.73
2019-02-04T22:23:10.513Z,14.80
2019-02-04T22:25:40.889Z,15.83
2019-02-04T22:30:43.777Z,12.93
2019-02-04T22:36:06.101Z,14.13
2019-02-04T22:38:34.819Z,12.80
2019-02-04T22:41:22.795Z,14.93
2019-02-04T22:44:31.303Z,13.50
2019-02-04T22:47:19.266Z,12.30
2019-02-04T22:50:07.230Z,13.30
2019-02-04T22:52:55.134Z,12.07
2019-02-04T22:55:31.655Z,12.63
2019-02-04T23:01:21.964Z,13.67
2019-02-04T23:03:50.633Z,14.37
2019-02-04T23:09:33.413Z,13.60
2019-02-04T23:12:21.359Z,13.53
2019-02-04T23:15:09.275Z,12.67
2019-02-04T23:17:58.843Z,12.63
2019-02-04T23:20:29.268Z,14.23
2019-02-04T23:22:57.970Z,13.03
2019-02-04T23:25:45.938Z,13.83
2019-02-04T23:28:33.901Z,13.93
2019-02-04T23:38:58.588Z,11.70
2019-02-04T23:44:21.211Z,12.93
2019-02-04T23:46:51.630Z,11.37
2019-02-04T23:49:39.613Z,12.90
2019-02-04T23:54:42.515Z,10.83
2019-02-04T23:57:11.419Z,11.03
